Time;durP1;ratioP1;P1;durP2;ratioP2;P2;SDS_P1;SDS_P2;PMS_P1;PMS_P2;Temp;Humidity;BMP_temperature;BMP_pressure;BME280_temperature;BME280_humidity;BME280_pressure;Samples;Min_cycle;Max_cycle;Signal;HPM_P1;HPM_P2
2024/03/03 00:00:14;;;;;;;73.70;38.17;;;;;;;8.01;100.00;101086.66;5017724;28;20065;-68
2024/03/03 00:02:40;;;;;;;67.72;36.38;;;;;;;8.01;100.00;101092.03;5018148;28;20087;-67
2024/03/03 00:05:06;;;;;;;74.95;37.47;;;;;;;7.90;100.00;101077.19;5018639;28;20057;-67
2024/03/03 00:07:32;;;;;;;67.10;35.75;;;;;;;8.02;100.00;101084.84;5015972;28;20026;-67
2024/03/03 00:09:57;;;;;;;72.72;37.95;;;;;;;7.97;100.00;101080.81;5018360;28;20033;-67
2024/03/03 00:12:23;;;;;;;67.35;36.97;;;;;;;7.93;100.00;101084.03;5017891;28;20033;-70
2024/03/03 00:14:48;;;;;;;70.55;36.60;;;;;;;7.94;100.00;101086.53;5016460;28;20049;-70
2024/03/03 00:17:13;;;;;;;69.22;36.17;;;;;;;7.84;100.00;101077.88;5015287;28;20038;-67
2024/03/03 00:19:42;;;;;;;72.63;37.17;;;;;;;7.91;100.00;101086.91;5030850;28;20028;-68
2024/03/03 00:22:08;;;;;;;72.07;38.08;;;;;;;7.75;100.00;101055.66;5016380;28;20052;-67
2024/03/03 00:24:34;;;;;;;72.40;38.17;;;;;;;7.92;100.00;101083.22;5015726;28;20026;-67
2024/03/03 00:26:59;;;;;;;70.68;37.28;;;;;;;7.90;100.00;101085.22;5016526;28;20160;-68
2024/03/03 00:29:25;;;;;;;80.47;38.33;;;;;;;7.89;100.00;101077.38;5017279;28;20093;-67
2024/03/03 00:31:50;;;;;;;75.55;37.47;;;;;;;7.92;100.00;101077.84;5016610;28;20076;-68
2024/03/03 00:34:15;;;;;;;74.25;38.13;;;;;;;7.91;100.00;101086.06;5018704;28;20081;-83
2024/03/03 00:36:41;;;;;;;73.88;38.47;;;;;;;7.84;100.00;101088.59;5023695;28;20134;-75
2024/03/03 00:39:07;;;;;;;76.80;38.85;;;;;;;7.86;100.00;101077.72;5018516;28;20054;-68
2024/03/03 00:41:32;;;;;;;75.13;38.70;;;;;;;7.75;100.00;101071.75;5017796;28;20026;-68
2024/03/03 00:43:58;;;;;;;76.90;38.03;;;;;;;7.83;100.00;101086.94;5017168;28;20026;-68
2024/03/03 00:46:23;;;;;;;82.40;39.95;;;;;;;7.82;100.00;101066.53;5015962;28;20030;-68
2024/03/03 00:48:49;;;;;;;72.40;37.75;;;;;;;7.90;100.00;101084.41;5033508;28;20046;-67
2024/03/03 00:51:14;;;;;;;76.88;39.22;;;;;;;7.84;100.00;101079.72;5016117;28;20029;-68
2024/03/03 00:53:40;;;;;;;79.90;39.47;;;;;;;7.74;100.00;101069.22;5017784;28;20026;-68
2024/03/03 00:56:05;;;;;;;80.30;40.38;;;;;;;7.81;100.00;101090.78;5016058;28;20034;-69
2024/03/03 00:58:31;;;;;;;76.93;40.28;;;;;;;7.80;100.00;101089.97;5016912;28;20045;-69
2024/03/03 01:00:56;;;;;;;87.43;41.60;;;;;;;7.81;100.00;101088.09;5017101;28;20042;-69
2024/03/03 01:03:21;;;;;;;75.88;39.10;;;;;;;7.78;100.00;101089.28;5017654;28;20029;-67
2024/03/03 01:05:47;;;;;;;81.60;40.05;;;;;;;7.73;100.00;101095.19;5017330;28;20692;-69
2024/03/03 01:08:13;;;;;;;79.45;41.10;;;;;;;7.73;100.00;101089.81;5015972;28;20121;-70
2024/03/03 01:10:39;;;;;;;79.15;40.85;;;;;;;7.74;100.00;101093.31;5016963;28;20092;-68
2024/03/03 01:13:04;;;;;;;82.78;40.92;;;;;;;7.72;100.00;101092.69;5017342;28;20026;-67
2024/03/03 01:15:30;;;;;;;84.90;40.88;;;;;;;7.71;100.00;101088.31;5032067;28;20045;-69
2024/03/03 01:17:55;;;;;;;82.57;40.80;;;;;;;7.71;100.00;101074.94;5015579;28;20117;-68
2024/03/03 01:20:20;;;;;;;79.72;40.83;;;;;;;7.72;100.00;101093.50;5016846;28;20037;-68
2024/03/03 01:22:46;;;;;;;84.60;41.80;;;;;;;7.76;100.00;101084.13;5016073;28;20543;-68
2024/03/03 01:25:11;;;;;;;80.18;40.55;;;;;;;7.72;100.00;101090.84;5015894;28;20045;-67
2024/03/03 01:27:36;;;;;;;90.28;41.80;;;;;;;7.65;100.00;101081.81;5015597;28;20037;-69
2024/03/03 01:30:03;;;;;;;79.70;39.67;;;;;;;7.67;100.00;101082.47;5015656;28;20081;-68
2024/03/03 01:32:29;;;;;;;77.55;39.75;;;;;;;7.67;100.00;101084.31;5014623;28;20030;-68
2024/03/03 01:34:55;;;;;;;83.30;41.35;;;;;;;7.62;100.00;101070.63;5015217;28;20093;-71
2024/03/03 01:37:20;;;;;;;80.10;39.72;;;;;;;7.68;100.00;101088.66;5013509;28;20045;-68
2024/03/03 01:39:46;;;;;;;78.93;38.35;;;;;;;7.66;100.00;101088.03;5015913;28;20081;-68
2024/03/03 01:42:13;;;;;;;81.18;40.30;;;;;;;7.63;100.00;101072.28;5015895;28;20448;-68
2024/03/03 01:44:39;;;;;;;81.57;41.50;;;;;;;7.61;100.00;101074.28;5018425;28;20034;-69
2024/03/03 01:47:07;;;;;;;80.05;40.15;;;;;;;7.59;100.00;101076.34;5019847;28;20030;-68
2024/03/03 01:49:33;;;;;;;80.55;39.72;;;;;;;7.56;100.00;101084.72;5018678;28;20057;-68
2024/03/03 01:52:01;;;;;;;79.82;39.97;;;;;;;7.62;100.00;101084.84;5018598;28;20022;-68
2024/03/03 01:54:27;;;;;;;73.55;39.50;;;;;;;7.58;100.00;101080.81;5019076;28;20722;-69
2024/03/03 01:56:53;;;;;;;80.15;40.05;;;;;;;7.58;100.00;101083.50;5019417;28;20040;-68
2024/03/03 01:59:19;;;;;;;75.97;40.47;;;;;;;7.58;100.00;101080.81;5019664;28;20617;-67
2024/03/03 02:01:45;;;;;;;76.13;38.92;;;;;;;7.56;100.00;101080.19;5019383;28;20036;-68
2024/03/03 02:04:11;;;;;;;81.35;40.33;;;;;;;7.57;100.00;101081.00;5018213;28;20108;-68
2024/03/03 02:06:39;;;;;;;82.05;40.97;;;;;;;7.57;100.00;101078.34;5034223;28;20040;-67
2024/03/03 02:09:06;;;;;;;79.00;39.85;;;;;;;7.47;100.00;101063.28;5034725;28;20037;-68
2024/03/03 02:11:32;;;;;;;67.20;35.10;;;;;;;7.53;100.00;101077.84;5020096;28;20030;-68
2024/03/03 02:13:58;;;;;;;77.43;39.28;;;;;;;7.56;100.00;101076.66;5019485;28;20053;-67
2024/03/03 02:16:23;;;;;;;74.72;39.42;;;;;;;7.56;100.00;101074.81;5019743;28;20017;-68
2024/03/03 02:18:50;;;;;;;77.88;39.38;;;;;;;7.41;100.00;101053.28;5019815;28;20053;-69
2024/03/03 02:21:21;;;;;;;72.90;38.08;;;;;;;7.53;100.00;101076.00;5017962;28;20026;-70
2024/03/03 02:23:46;;;;;;;76.25;39.90;;;;;;;7.47;100.00;101060.63;5019741;28;20033;-69
2024/03/03 02:26:12;;;;;;;78.65;40.70;;;;;;;7.59;100.00;101076.34;5017577;28;20034;-68
2024/03/03 02:28:41;;;;;;;77.32;39.63;;;;;;;7.64;100.00;101080.13;5018089;28;20022;-68
2024/03/03 02:31:07;;;;;;;77.55;40.13;;;;;;;7.62;100.00;101073.31;5016534;28;20041;-67
2024/03/03 02:33:32;;;;;;;76.38;39.72;;;;;;;7.63;100.00;101078.47;5017924;28;20033;-68
2024/03/03 02:35:58;;;;;;;74.90;39.95;;;;;;;7.62;100.00;101076.81;5018303;28;20160;-67
2024/03/03 02:38:23;;;;;;;74.60;39.85;;;;;;;7.59;100.00;101082.53;5016904;28;20033;-70
2024/03/03 02:40:49;;;;;;;83.20;41.60;;;;;;;7.46;100.00;101042.91;5018618;28;20132;-68
2024/03/03 02:43:14;;;;;;;70.95;39.15;;;;;;;7.59;100.00;101077.16;5018272;28;20030;-72
2024/03/03 02:45:40;;;;;;;73.47;40.33;;;;;;;7.53;100.00;101070.66;5017527;28;20094;-71
2024/03/03 02:48:06;;;;;;;76.32;38.97;;;;;;;7.61;100.00;101071.63;5017290;28;20022;-68
2024/03/03 02:50:31;;;;;;;71.90;39.88;;;;;;;7.62;100.00;101070.63;5033429;28;20032;-76
2024/03/03 02:52:56;;;;;;;69.03;38.70;;;;;;;7.60;100.00;101072.63;5018768;28;20034;-69
2024/03/03 02:55:22;;;;;;;73.22;39.60;;;;;;;7.60;100.00;101069.97;5017116;28;20572;-70
2024/03/03 02:57:47;;;;;;;73.57;39.60;;;;;;;7.65;100.00;101076.47;5016591;28;20050;-68
2024/03/03 03:00:13;;;;;;;74.28;39.67;;;;;;;7.59;100.00;101066.44;5017078;28;20022;-72
2024/03/03 03:02:39;;;;;;;72.20;39.38;;;;;;;7.58;100.00;101070.13;5017875;28;20036;-67
2024/03/03 03:05:05;;;;;;;73.57;39.40;;;;;;;7.61;100.00;101060.91;5016948;28;20025;-68
2024/03/03 03:07:30;;;;;;;75.63;37.92;;;;;;;7.56;100.00;101063.28;5016930;28;20544;-70
2024/03/03 03:09:56;;;;;;;75.00;39.38;;;;;;;7.62;100.00;101070.63;5017079;28;20038;-71
2024/03/03 03:12:21;;;;;;;72.90;41.03;;;;;;;7.60;100.00;101061.91;5018046;28;20030;-67
2024/03/03 03:14:48;;;;;;;75.28;40.00;;;;;;;7.59;100.00;101068.28;5017103;28;20065;-67
2024/03/03 03:17:13;;;;;;;72.45;39.75;;;;;;;7.60;100.00;101065.44;5017482;28;20026;-68
2024/03/03 03:19:40;;;;;;;77.95;40.03;;;;;;;7.62;100.00;101065.28;5019852;28;20139;-69
2024/03/03 03:22:06;;;;;;;74.20;38.75;;;;;;;7.60;100.00;101056.56;5018156;28;20117;-68
2024/03/03 03:24:31;;;;;;;77.60;40.20;;;;;;;7.64;100.00;101061.38;5015404;28;20049;-68
2024/03/03 03:26:57;;;;;;;71.95;39.50;;;;;;;7.44;100.00;101034.19;5032262;28;20037;-70
2024/03/03 03:29:23;;;;;;;73.85;39.60;;;;;;;7.62;100.00;101044.69;5015493;28;20034;-68
2024/03/03 03:31:48;;;;;;;74.28;40.05;;;;;;;7.59;100.00;101054.91;5015535;28;20552;-68
2024/03/03 03:34:13;;;;;;;72.47;39.88;;;;;;;7.57;100.00;101048.88;5016564;28;20481;-68
2024/03/03 03:36:39;;;;;;;71.00;39.72;;;;;;;7.56;100.00;101053.41;5015934;28;20038;-68
2024/03/03 03:39:12;;;;;;;72.28;40.47;;;;;;;7.55;100.00;101049.06;5016193;28;20137;-68
2024/03/03 03:41:48;;;;;;;74.72;40.83;;;;;;;7.49;100.00;101047.06;5015760;28;20053;-68
2024/03/03 03:44:17;;;;;;;69.53;39.25;;;;;;;7.33;100.00;101023.88;5015995;28;20040;-68
2024/03/03 03:46:43;;;;;;;72.35;40.10;;;;;;;7.49;100.00;101042.56;5015041;28;20041;-68
2024/03/03 03:49:09;;;;;;;69.78;39.38;;;;;;;7.51;100.00;101053.06;5020735;28;20033;-68
2024/03/03 03:51:35;;;;;;;68.40;38.53;;;;;;;7.48;100.00;101054.28;5035774;28;20098;-70
2024/03/03 03:54:01;;;;;;;69.65;39.78;;;;;;;7.41;100.00;101045.25;5021380;28;20245;-71
2024/03/03 03:56:26;;;;;;;72.22;39.88;;;;;;;7.32;100.00;101032.91;4999610;28;20030;-68
2024/03/03 03:58:52;;;;;;;72.82;39.88;;;;;;;7.49;100.00;101055.94;4999298;28;20037;-68
2024/03/03 04:01:19;;;;;;;69.60;38.33;;;;;;;7.50;100.00;101049.56;5033195;28;20125;-68
2024/03/03 04:03:44;;;;;;;68.22;37.80;;;;;;;7.51;100.00;101059.25;5017167;28;20022;-72
2024/03/03 04:06:10;;;;;;;65.57;37.50;;;;;;;7.57;100.00;101064.94;5015817;28;20029;-68
2024/03/03 04:08:35;;;;;;;66.20;36.65;;;;;;;7.57;100.00;101057.75;5016113;28;20432;-69
2024/03/03 04:11:00;;;;;;;66.32;39.05;;;;;;;7.59;100.00;101052.22;5015866;28;20026;-68
2024/03/03 04:13:26;;;;;;;67.82;37.45;;;;;;;7.56;100.00;101049.91;5016192;28;20037;-69
2024/03/03 04:15:51;;;;;;;73.57;40.35;;;;;;;7.59;100.00;101060.25;5016965;28;20031;-68
2024/03/03 04:18:16;;;;;;;60.00;36.35;;;;;;;7.57;100.00;101060.41;5015590;28;20026;-73
2024/03/03 04:20:42;;;;;;;64.78;38.17;;;;;;;7.57;100.00;101062.28;5015500;28;20030;-67
2024/03/03 04:23:07;;;;;;;59.85;37.33;;;;;;;7.45;100.00;101043.91;5015396;28;20056;-68
2024/03/03 04:25:33;;;;;;;62.05;36.90;;;;;;;7.59;100.00;101061.09;5015973;28;20431;-68
2024/03/03 04:27:58;;;;;;;63.00;35.40;;;;;;;7.57;100.00;101064.94;5026295;28;20037;-69
2024/03/03 04:30:25;;;;;;;63.42;36.45;;;;;;;7.56;100.00;101066.78;5035688;28;20025;-69
2024/03/03 04:32:51;;;;;;;58.65;34.78;;;;;;;7.54;100.00;101064.28;5034799;28;20036;-68
2024/03/03 04:35:16;;;;;;;60.85;35.38;;;;;;;7.51;100.00;101063.78;5034534;28;20037;-73
2024/03/03 04:37:42;;;;;;;66.10;37.63;;;;;;;7.54;100.00;101063.44;5035935;28;20033;-68
2024/03/03 04:40:08;;;;;;;57.13;36.38;;;;;;;7.48;100.00;101053.41;5035930;28;20492;-68
2024/03/03 04:42:33;;;;;;;58.33;35.35;;;;;;;7.46;100.00;101050.94;5034415;28;20041;-70
2024/03/03 04:44:59;;;;;;;57.85;36.08;;;;;;;7.53;100.00;101065.28;5017131;28;20088;-68
2024/03/03 04:47:25;;;;;;;57.35;35.33;;;;;;;7.48;100.00;101059.63;5033920;28;20025;-72
2024/03/03 04:49:50;;;;;;;59.03;36.10;;;;;;;7.48;100.00;101064.13;5035816;28;20080;-67
2024/03/03 04:52:16;;;;;;;49.83;30.27;;;;;;;7.48;100.00;101064.13;5034798;28;20025;-68
2024/03/03 04:54:41;;;;;;;54.15;35.15;;;;;;;7.45;100.00;101059.97;5034641;28;20107;-67
2024/03/03 04:57:07;;;;;;;56.15;35.45;;;;;;;7.23;100.00;101028.59;5034752;28;20056;-67
2024/03/03 04:59:32;;;;;;;56.15;35.03;;;;;;;7.49;100.00;101063.97;5034652;28;20033;-69
2024/03/03 05:01:58;;;;;;;52.35;33.53;;;;;;;7.46;100.00;101061.63;5035420;28;20029;-71
2024/03/03 05:04:23;;;;;;;52.72;33.97;;;;;;;7.45;100.00;101057.28;5017735;28;20041;-69
2024/03/03 05:06:49;;;;;;;53.95;34.42;;;;;;;7.44;100.00;101069.00;5034681;28;20026;-70
2024/03/03 05:09:15;;;;;;;55.30;35.03;;;;;;;7.31;100.00;101041.94;5034492;28;20033;-67
2024/03/03 05:11:41;;;;;;;55.03;34.40;;;;;;;7.41;100.00;101073.84;5033922;28;20033;-67
2024/03/03 05:14:07;;;;;;;49.83;32.65;;;;;;;7.41;100.00;101076.53;5035877;28;20045;-67
2024/03/03 05:16:32;;;;;;;49.65;33.35;;;;;;;7.40;100.00;101069.53;5033667;28;20037;-68
2024/03/03 05:18:58;;;;;;;51.47;32.38;;;;;;;7.36;100.00;101066.34;5034492;28;20029;-67
2024/03/03 05:21:23;;;;;;;50.65;33.42;;;;;;;7.36;100.00;101065.53;5037269;28;20029;-68
2024/03/03 05:23:49;;;;;;;51.90;33.55;;;;;;;7.37;100.00;101073.38;5037881;28;20471;-68
2024/03/03 05:26:18;;;;;;;48.70;33.67;;;;;;;7.33;100.00;101065.88;5038256;28;20040;-69
2024/03/03 05:28:50;;;;;;;49.63;32.53;;;;;;;7.35;100.00;101077.22;5039375;28;20448;-68
2024/03/03 05:31:15;;;;;;;50.78;32.72;;;;;;;7.15;100.00;101036.63;5039356;28;20034;-67
2024/03/03 05:33:41;;;;;;;51.78;33.80;;;;;;;7.33;100.00;101073.91;5037608;28;20048;-69
2024/03/03 05:36:06;;;;;;;52.15;34.15;;;;;;;7.34;100.00;101078.22;5038450;28;20029;-67
2024/03/03 05:38:32;;;;;;;51.38;33.53;;;;;;;7.26;100.00;101073.75;5037153;28;20053;-68
2024/03/03 05:40:57;;;;;;;52.28;34.55;;;;;;;7.20;100.00;101069.06;5036656;28;20072;-67
2024/03/03 05:43:24;;;;;;;51.78;34.92;;;;;;;7.32;100.00;101091.81;5038472;28;20064;-67
2024/03/03 05:45:50;;;;;;;51.17;34.75;;;;;;;7.20;100.00;101067.22;5037716;28;20037;-67
2024/03/03 05:48:15;;;;;;;48.85;32.33;;;;;;;7.26;100.00;101096.00;5041413;28;20030;-71
2024/03/03 05:50:40;;;;;;;48.10;32.20;;;;;;;7.26;100.00;101097.84;5042672;28;20033;-68
2024/03/03 05:53:06;;;;;;;51.97;32.70;;;;;;;7.25;100.00;101097.00;5038610;28;20041;-70
2024/03/03 05:55:31;;;;;;;47.88;32.22;;;;;;;7.25;100.00;101101.50;5020973;28;20088;-67
2024/03/03 05:57:57;;;;;;;48.75;33.22;;;;;;;7.28;100.00;101106.50;5038683;28;20093;-67
2024/03/03 06:00:23;;;;;;;51.67;33.22;;;;;;;7.27;100.00;101110.19;5037500;28;20061;-68
2024/03/03 06:02:48;;;;;;;49.78;33.40;;;;;;;7.15;100.00;101088.31;5038731;28;20060;-68
2024/03/03 06:05:14;;;;;;;52.13;33.55;;;;;;;7.27;100.00;101105.69;5037372;28;20030;-75
2024/03/03 06:07:39;;;;;;;47.30;32.30;;;;;;;7.16;100.00;101086.47;5036879;28;20029;-68
2024/03/03 06:10:05;;;;;;;48.70;32.92;;;;;;;7.20;100.00;101101.19;5037630;28;20095;-67
2024/03/03 06:12:30;;;;;;;49.58;33.42;;;;;;;7.24;100.00;101107.88;5043176;28;20373;-75
2024/03/03 06:14:56;;;;;;;51.40;33.17;;;;;;;7.27;100.00;101110.19;5040933;28;20045;-68
2024/03/03 06:17:21;;;;;;;50.42;33.00;;;;;;;7.25;100.00;101113.06;5041018;28;20494;-68
2024/03/03 06:19:47;;;;;;;49.03;32.80;;;;;;;7.27;100.00;101108.34;5035634;28;20033;-68
2024/03/03 06:22:12;;;;;;;49.90;32.75;;;;;;;7.16;100.00;101107.88;5019360;28;20038;-67
2024/03/03 06:24:38;;;;;;;48.75;32.05;;;;;;;7.18;100.00;101111.22;5038328;28;20559;-69
2024/03/03 06:27:04;;;;;;;47.08;30.88;;;;;;;7.20;100.00;101119.91;5038298;28;20064;-68
2024/03/03 06:29:29;;;;;;;49.10;32.97;;;;;;;7.13;100.00;101106.38;5037160;28;20025;-68
2024/03/03 06:31:55;;;;;;;46.67;31.88;;;;;;;7.22;100.00;101117.94;5018732;28;20060;-67
2024/03/03 06:34:20;;;;;;;49.78;32.33;;;;;;;7.20;100.00;101122.59;5034815;28;20057;-67
2024/03/03 06:36:46;;;;;;;48.85;32.92;;;;;;;7.14;100.00;101109.88;5036041;28;20762;-68
2024/03/03 06:39:14;;;;;;;48.63;31.77;;;;;;;7.22;100.00;101116.06;5036753;28;20065;-68
2024/03/03 06:41:43;;;;;;;46.47;32.13;;;;;;;7.23;100.00;101116.91;5019262;28;20037;-69
2024/03/03 06:44:11;;;;;;;45.67;31.95;;;;;;;7.18;100.00;101117.41;5020181;28;20081;-75
2024/03/03 06:46:36;;;;;;;47.30;33.40;;;;;;;7.18;100.00;101116.56;5037188;28;20025;-70
2024/03/03 06:49:03;;;;;;;46.03;32.58;;;;;;;7.16;100.00;101118.59;5036453;28;20045;-67
2024/03/03 06:51:28;;;;;;;46.80;31.38;;;;;;;7.16;100.00;101118.59;5038043;28;20030;-69
2024/03/03 06:53:55;;;;;;;47.03;32.10;;;;;;;7.21;100.00;101126.94;5021106;28;20037;-67
2024/03/03 06:56:20;;;;;;;45.25;31.08;;;;;;;7.16;100.00;101118.59;5037631;28;20080;-66
2024/03/03 06:58:46;;;;;;;42.38;27.75;;;;;;;7.04;100.00;101108.22;5042959;28;20045;-76
2024/03/03 07:01:12;;;;;;;47.78;30.88;;;;;;;7.16;100.00;101124.78;5040495;28;20469;-69
2024/03/03 07:06:03;;;;;;;43.55;31.13;;;;;;;7.16;100.00;101123.94;5039743;28;20036;-67
2024/03/03 07:08:28;;;;;;;46.25;31.23;;;;;;;7.17;100.00;101110.38;5036955;28;20045;-70
2024/03/03 07:10:54;;;;;;;45.25;31.13;;;;;;;7.13;100.00;101114.41;5020627;28;20075;-70
2024/03/03 07:13:19;;;;;;;44.45;30.67;;;;;;;7.23;100.00;101130.28;5039198;28;20455;-69
2024/03/03 07:15:45;;;;;;;43.78;30.02;;;;;;;7.22;100.00;101128.63;5043648;28;20044;-70
2024/03/03 07:18:10;;;;;;;38.40;27.88;;;;;;;7.20;100.00;101126.09;5039665;28;20451;-72
2024/03/03 07:20:36;;;;;;;55.28;40.92;;;;;;;7.22;100.00;101134.81;5037550;28;20056;-71
2024/03/03 07:23:01;;;;;;;85.40;60.05;;;;;;;7.21;100.00;101134.97;5038846;28;20083;-70
2024/03/03 07:25:26;;;;;;;38.22;28.85;;;;;;;7.26;100.00;101136.13;5019872;28;20547;-71
2024/03/03 07:27:52;;;;;;;34.10;25.00;;;;;;;7.25;100.00;101136.28;5040734;28;20040;-72
2024/03/03 07:30:18;;;;;;;35.30;25.48;;;;;;;7.35;100.00;101136.09;5029122;28;20530;-76
2024/03/03 07:32:44;;;;;;;29.92;22.00;;;;;;;7.26;100.00;101132.63;5044091;28;20025;-70
2024/03/03 07:35:09;;;;;;;32.25;23.90;;;;;;;7.27;100.00;101131.63;5046974;28;20048;-69
2024/03/03 07:37:35;;;;;;;29.15;23.42;;;;;;;7.33;100.00;101146.16;5026033;28;20051;-72
2024/03/03 07:40:00;;;;;;;30.02;22.70;;;;;;;7.32;100.00;101148.03;5042618;28;20077;-73
2024/03/03 07:42:25;;;;;;;29.23;22.25;;;;;;;7.36;100.00;101137.81;5047176;28;20060;-74
2024/03/03 07:44:51;;;;;;;30.90;23.50;;;;;;;7.28;100.00;101141.31;5048294;28;20018;-79
2024/03/03 07:47:16;;;;;;;30.83;22.92;;;;;;;7.18;100.00;101114.72;5031405;28;20037;-73
2024/03/03 07:49:45;;;;;;;31.05;23.63;;;;;;;7.41;100.00;101136.25;5045632;28;20051;-78
2024/03/03 07:52:10;;;;;;;29.70;22.17;;;;;;;7.42;100.00;101132.59;5039352;28;20443;-72
2024/03/03 07:54:36;;;;;;;28.98;22.75;;;;;;;7.28;100.00;101135.94;5033927;28;20029;-67
2024/03/03 07:57:01;;;;;;;28.02;20.15;;;;;;;7.20;100.00;101109.22;5035420;28;20029;-71
2024/03/03 07:59:26;;;;;;;27.45;20.45;;;;;;;7.27;100.00;101136.97;5035654;28;20033;-70
2024/03/03 08:01:52;;;;;;;28.73;21.52;;;;;;;7.28;100.00;101130.59;5035995;28;20033;-68
2024/03/03 08:04:20;;;;;;;28.85;20.90;;;;;;;7.23;100.00;101120.41;5017941;28;20132;-68
2024/03/03 08:06:46;;;;;;;27.52;20.45;;;;;;;7.24;100.00;101129.28;5019048;28;20029;-68
2024/03/03 08:09:12;;;;;;;30.60;23.80;;;;;;;7.32;100.00;101123.94;5034636;28;20136;-68
2024/03/03 08:11:37;;;;;;;29.88;23.05;;;;;;;7.35;100.00;101131.63;5036401;28;20036;-68
2024/03/03 08:14:03;;;;;;;33.95;24.38;;;;;;;7.41;100.00;101136.25;5036331;28;20532;-68
2024/03/03 08:16:29;;;;;;;27.67;20.38;;;;;;;7.32;100.00;101117.72;5035038;28;20029;-68
2024/03/03 08:18:55;;;;;;;29.38;23.00;;;;;;;7.43;100.00;101136.13;5035646;28;20443;-70
2024/03/03 08:21:20;;;;;;;29.88;23.02;;;;;;;7.50;100.00;101139.78;5035309;28;20038;-68
2024/03/03 08:23:45;;;;;;;32.47;25.30;;;;;;;7.45;100.00;101142.97;5034864;28;20033;-68
2024/03/03 08:26:11;;;;;;;51.33;39.00;;;;;;;7.41;100.00;101143.47;5034847;28;20056;-69
2024/03/03 08:28:37;;;;;;;29.13;21.45;;;;;;;7.37;100.00;101123.41;5035289;28;20040;-69
2024/03/03 08:31:02;;;;;;;30.83;22.40;;;;;;;7.47;100.00;101132.09;5036480;28;20112;-71
2024/03/03 08:33:28;;;;;;;28.10;20.92;;;;;;;7.27;100.00;101091.47;5036841;28;20492;-69
2024/03/03 08:35:53;;;;;;;28.30;22.38;;;;;;;7.44;100.00;101106.47;5036655;28;20439;-67
2024/03/03 08:38:18;;;;;;;29.15;22.73;;;;;;;7.50;100.00;101123.72;5034370;28;20442;-68
2024/03/03 08:40:44;;;;;;;27.95;21.52;;;;;;;7.56;100.00;101115.00;5034329;28;20054;-67
2024/03/03 08:43:09;;;;;;;29.48;22.30;;;;;;;7.52;100.00;101122.53;5035958;28;20084;-70
2024/03/03 08:45:35;;;;;;;29.08;20.83;;;;;;;7.50;100.00;101121.88;5035738;28;20113;-67
2024/03/03 08:48:00;;;;;;;27.85;20.85;;;;;;;7.56;100.00;101124.88;5033894;28;20476;-67
2024/03/03 08:50:25;;;;;;;27.35;20.90;;;;;;;7.65;100.00;101124.69;5000784;28;20077;-68
2024/03/03 08:52:51;;;;;;;27.05;20.77;;;;;;;7.58;100.00;101123.66;5036178;28;20453;-68
2024/03/03 08:55:16;;;;;;;28.48;19.50;;;;;;;7.35;100.00;101120.91;5038186;28;20075;-67
2024/03/03 08:57:42;;;;;;;27.77;19.58;;;;;;;7.52;100.00;101122.53;5038839;28;20144;-67
2024/03/03 09:00:12;;;;;;;26.33;20.23;;;;;;;7.35;100.00;101118.22;5038904;28;20041;-68
2024/03/03 09:02:38;;;;;;;28.30;20.45;;;;;;;7.47;100.00;101126.72;5039235;28;20033;-68
2024/03/03 09:05:04;;;;;;;27.92;20.65;;;;;;;7.58;100.00;101133.56;5038922;28;20030;-68
2024/03/03 09:07:29;;;;;;;28.92;20.88;;;;;;;7.51;100.00;101139.59;5038901;28;20041;-68
2024/03/03 09:09:55;;;;;;;27.10;19.08;;;;;;;7.48;100.00;101131.94;5039390;28;20034;-68
2024/03/03 09:12:20;;;;;;;27.83;20.85;;;;;;;7.50;100.00;101137.94;5039062;28;20096;-67
2024/03/03 09:14:45;;;;;;;79.53;51.08;;;;;;;7.52;100.00;101141.28;5040112;28;20060;-67
2024/03/03 09:17:11;;;;;;;29.25;22.38;;;;;;;7.38;100.00;101125.06;5021950;28;20041;-68
2024/03/03 09:19:36;;;;;;;26.48;20.48;;;;;;;7.48;100.00;101144.44;5022065;28;20029;-67
2024/03/03 09:22:02;;;;;;;29.02;20.35;;;;;;;7.47;100.00;101138.25;5039979;28;20044;-68
2024/03/03 09:24:27;;;;;;;26.25;19.17;;;;;;;7.46;100.00;101141.97;5037538;28;20029;-67
2024/03/03 09:26:52;;;;;;;26.90;20.08;;;;;;;7.44;100.00;101138.59;5038392;28;20457;-68
2024/03/03 09:29:18;;;;;;;25.90;19.25;;;;;;;7.37;100.00;101137.63;5039015;28;20075;-68
2024/03/03 09:31:43;;;;;;;24.65;20.23;;;;;;;7.50;100.00;101143.28;5039247;28;20112;-68
2024/03/03 09:34:09;;;;;;;25.48;18.58;;;;;;;7.42;100.00;101146.00;5039315;28;20051;-68
2024/03/03 09:36:34;;;;;;;23.52;17.60;;;;;;;7.42;100.00;101147.84;5039217;28;20040;-69
2024/03/03 09:39:00;;;;;;;23.83;18.98;;;;;;;7.40;100.00;101145.31;5040053;28;20053;-68
2024/03/03 09:41:25;;;;;;;24.52;18.67;;;;;;;7.40;100.00;101153.34;5037846;28;20140;-68
2024/03/03 09:43:59;;;;;;;26.38;19.70;;;;;;;7.30;100.00;101145.50;5037875;28;20041;-67
2024/03/03 09:46:27;;;;;;;24.05;19.02;;;;;;;7.27;100.00;101139.66;5038069;28;20025;-68
2024/03/03 09:48:55;;;;;;;24.73;19.00;;;;;;;7.45;100.00;101156.38;5037866;28;20034;-67
2024/03/03 09:51:24;;;;;;;24.27;18.13;;;;;;;7.42;100.00;101146.00;5039756;28;20036;-69
2024/03/03 09:53:52;;;;;;;25.05;18.38;;;;;;;7.41;100.00;101148.81;5022974;28;20120;-67
2024/03/03 09:56:20;;;;;;;28.08;20.35;;;;;;;7.44;100.00;101159.19;5039865;28;20032;-67
2024/03/03 09:58:46;;;;;;;27.05;19.63;;;;;;;7.47;100.00;101156.19;5038086;28;20029;-67
2024/03/03 10:01:12;;;;;;;23.20;18.15;;;;;;;7.40;100.00;101152.50;5040017;28;20034;-67
2024/03/03 10:03:41;;;;;;;23.48;16.67;;;;;;;7.33;100.00;101156.88;5040007;28;20556;-69
2024/03/03 10:06:10;;;;;;;23.73;18.98;;;;;;;7.49;100.00;101152.34;5048513;28;20032;-76
2024/03/03 10:08:41;;;;;;;22.13;17.75;;;;;;;7.47;100.00;101154.34;5048517;28;20020;-77
2024/03/03 10:11:13;;;;;;;26.33;19.48;;;;;;;7.56;100.00;101157.00;5048260;28;20579;-73
2024/03/03 10:13:44;;;;;;;26.40;19.83;;;;;;;7.54;100.00;101149.97;5048825;28;20087;-75
2024/03/03 10:16:14;;;;;;;24.75;17.25;;;;;;;7.48;100.00;101145.31;5046030;28;20028;-71
2024/03/03 10:18:39;;;;;;;23.33;18.13;;;;;;;7.45;100.00;101145.66;5048306;28;20029;-78
2024/03/03 10:21:05;;;;;;;24.45;17.58;;;;;;;7.50;100.00;101153.16;5031361;28;20029;-75
2024/03/03 10:23:32;;;;;;;21.70;16.80;;;;;;;7.42;100.00;101132.59;5048853;28;20029;-73
2024/03/03 10:25:58;;;;;;;24.58;17.42;;;;;;;7.53;100.00;101159.00;5052760;28;20033;-70
2024/03/03 10:28:24;;;;;;;23.23;17.40;;;;;;;7.45;100.00;101160.84;5035218;28;20033;-74
2024/03/03 10:30:49;;;;;;;24.30;17.08;;;;;;;7.44;100.00;101141.28;5046810;28;20085;-69
2024/03/03 10:33:15;;;;;;;24.98;17.05;;;;;;;7.62;100.00;101165.19;5048776;28;20025;-69
2024/03/03 10:35:40;;;;;;;22.05;17.50;;;;;;;7.60;100.00;101161.00;5050014;28;20056;-70
2024/03/03 10:38:09;;;;;;;24.60;17.25;;;;;;;7.60;100.00;101169.03;5028768;28;20037;-78
2024/03/03 10:40:34;;;;;;;21.48;16.55;;;;;;;7.56;100.00;101170.41;5047401;28;20049;-79
2024/03/03 10:43:00;;;;;;;21.15;17.00;;;;;;;7.36;100.00;101129.78;5047013;28;20029;-73
2024/03/03 10:45:25;;;;;;;23.33;17.83;;;;;;;7.65;100.00;101166.66;5051087;28;20017;-70
2024/03/03 10:47:52;;;;;;;22.95;17.05;;;;;;;7.61;100.00;101171.53;5050860;28;20038;-71
2024/03/03 10:50:19;;;;;;;21.50;15.43;;;;;;;7.56;100.00;101165.03;5053373;28;20029;-71
2024/03/03 10:52:45;;;;;;;21.60;15.80;;;;;;;7.39;100.00;101148.19;5053450;28;20075;-70
2024/03/03 10:55:13;;;;;;;20.15;16.27;;;;;;;7.55;100.00;101166.88;5052306;28;20209;-71
2024/03/03 10:57:39;;;;;;;23.92;16.92;;;;;;;7.54;100.00;101146.44;5046575;28;20032;-70
2024/03/03 11:00:11;;;;;;;22.50;15.88;;;;;;;7.61;100.00;101162.69;5047131;28;20104;-69
2024/03/03 11:02:37;;;;;;;23.35;16.80;;;;;;;7.47;100.00;101150.81;5040009;28;20452;-69
2024/03/03 11:05:04;;;;;;;20.23;16.60;;;;;;;7.57;100.00;101169.38;5040883;28;20025;-69